Time;durP1;ratioP1;P1;durP2;ratioP2;P2;SDS_P1;SDS_P2;PMS_P1;PMS_P2;Temp;Humidity;BMP_temperature;BMP_pressure;BME280_temperature;BME280_humidity;BME280_pressure;Samples;Min_cycle;Max_cycle;Signal;HPM_P1;HPM_P2
2022/08/11 00:00:45;;;;;;;3.28;2.10;;;17.60;99.90;;;;;;5011879;28;20132;-60
2022/08/11 00:03:14;;;;;;;5.32;2.08;;;17.50;99.90;;;;;;5013657;28;20022;-60
2022/08/11 00:05:44;;;;;;;3.35;1.92;;;17.50;99.90;;;;;;5007854;28;20548;-60
2022/08/11 00:08:19;;;;;;;4.90;1.70;;;17.50;99.90;;;;;;5012372;28;20486;-60
2022/08/11 00:10:53;;;;;;;3.33;1.98;;;17.40;99.90;;;;;;5017089;28;20030;-60
2022/08/11 00:13:20;;;;;;;7.82;2.30;;;17.40;99.90;;;;;;5020512;28;20103;-60
2022/08/11 00:15:47;;;;;;;5.50;1.88;;;17.40;99.90;;;;;;5017724;28;20064;-60
2022/08/11 00:18:13;;;;;;;5.93;1.85;;;17.30;99.90;;;;;;5020755;28;20022;-60
2022/08/11 00:20:42;;;;;;;4.05;2.10;;;17.30;99.90;;;;;;5025561;28;20033;-60
2022/08/11 00:23:15;;;;;;;5.78;1.98;;;17.30;99.90;;;;;;5015995;28;20025;-60
2022/08/11 00:25:47;;;;;;;5.43;1.70;;;17.30;99.90;;;;;;5030172;28;20514;-60
2022/08/11 00:28:30;;;;;;;4.18;2.00;;;17.30;99.90;;;;;;4999897;28;20034;-59
2022/08/11 00:30:57;;;;;;;;;;;17.20;99.90;;;;;;5002406;28;20121;-59
2022/08/11 00:33:29;;;;;;;4.65;1.52;;;17.20;99.90;;;;;;5022873;28;19954;-59
2022/08/11 00:35:58;;;;;;;3.10;1.90;;;17.10;99.90;;;;;;5017076;28;20049;-60
2022/08/11 00:38:28;;;;;;;3.03;1.92;;;17.00;99.90;;;;;;5013371;28;20109;-59
2022/08/11 00:41:15;;;;;;;3.03;1.40;;;17.00;99.90;;;;;;5020182;28;20067;-60
2022/08/11 00:43:59;;;;;;;5.10;2.10;;;17.00;99.90;;;;;;5006368;28;20042;-59
2022/08/11 00:46:25;;;;;;;7.30;2.20;;;17.00;99.90;;;;;;5012675;28;20080;-60
2022/08/11 00:49:01;;;;;;;5.43;2.22;;;16.90;99.90;;;;;;5023294;28;20052;-60
2022/08/11 00:51:53;;;;;;;5.82;2.78;;;16.90;99.90;;;;;;5010011;28;20030;-61
2022/08/11 00:54:38;;;;;;;6.72;2.75;;;17.00;99.90;;;;;;4997052;28;20050;-59
2022/08/11 00:57:45;;;;;;;7.20;2.30;;;17.00;99.90;;;;;;5019503;28;20037;-60
2022/08/11 01:00:15;;;;;;;3.53;2.30;;;17.00;99.90;;;;;;5015562;28;20575;-60
2022/08/11 01:03:04;;;;;;;5.93;2.60;;;17.00;99.90;;;;;;5026345;28;20075;-61
2022/08/11 01:05:39;;;;;;;2.47;1.80;;;16.90;99.90;;;;;;5000502;28;20053;-60
2022/08/11 01:08:41;;;;;;;3.58;2.22;;;17.00;99.90;;;;;;5011533;28;20017;-59
2022/08/11 01:11:21;;;;;;;3.90;2.13;;;16.90;99.90;;;;;;5010488;28;20030;-60
2022/08/11 01:14:19;;;;;;;3.50;2.25;;;16.90;99.90;;;;;;5016009;28;20540;-60
2022/08/11 01:17:08;;;;;;;4.47;2.33;;;17.10;99.90;;;;;;4994236;28;20048;-59
2022/08/11 01:20:02;;;;;;;5.88;2.28;;;17.00;99.90;;;;;;5015513;28;20029;-60
2022/08/11 01:22:49;;;;;;;6.13;2.20;;;17.00;99.90;;;;;;5013241;28;20026;-59
2022/08/11 01:25:51;;;;;;;3.10;2.20;;;16.90;99.90;;;;;;5016347;28;20045;-62
2022/08/11 01:28:30;;;;;;;;;;;17.00;99.90;;;;;;5014982;28;20055;-61
2022/08/11 01:31:45;;;;;;;5.25;2.47;;;16.90;99.90;;;;;;5017566;28;19916;-61
2022/08/11 01:34:25;;;;;;;2.97;2.30;;;16.90;99.90;;;;;;5009471;28;20080;-59
2022/08/11 01:37:29;;;;;;;3.25;2.13;;;16.90;99.90;;;;;;5012232;28;20036;-59
2022/08/11 01:40:16;;;;;;;4.30;2.60;;;16.90;99.90;;;;;;4967718;28;20395;-60
2022/08/11 01:45:52;;;;;;;5.47;2.67;;;16.90;99.90;;;;;;4969254;28;20070;-62
2022/08/11 01:48:43;;;;;;;3.30;2.17;;;16.80;99.90;;;;;;4965032;28;20065;-61
2022/08/11 01:51:45;;;;;;;6.43;2.10;;;16.80;99.90;;;;;;4960390;28;20062;-61
2022/08/11 01:54:30;;;;;;;4.18;2.05;;;16.70;99.90;;;;;;4967275;28;20113;-59
2022/08/11 01:57:04;;;;;;;4.30;2.10;;;16.70;99.90;;;;;;4962951;28;20039;-59
2022/08/11 01:59:50;;;;;;;3.85;2.30;;;16.60;99.90;;;;;;4969019;28;20085;-59
2022/08/11 02:02:46;;;;;;;6.03;2.50;;;16.60;99.90;;;;;;4961940;28;20043;-59
2022/08/11 02:05:33;;;;;;;4.65;2.80;;;16.60;99.90;;;;;;4962150;28;20042;-59
2022/08/11 02:08:16;;;;;;;4.85;3.28;;;16.60;99.90;;;;;;4965314;28;20121;-60
2022/08/11 02:13:54;;;;;;;7.57;2.33;;;16.60;99.90;;;;;;4963582;28;20049;-58
2022/08/11 02:16:49;;;;;;;5.95;2.78;;;16.60;99.90;;;;;;4989628;28;20041;-58
2022/08/11 02:25:07;;;;;;;6.47;3.03;;;16.60;99.90;;;;;;5004395;28;20448;-59
2022/08/11 02:27:44;;;;;;;3.95;2.47;;;16.60;99.90;;;;;;5013065;28;20025;-60
2022/08/11 02:30:21;;;;;;;6.55;2.72;;;16.70;99.90;;;;;;5020018;28;20117;-60
2022/08/11 02:33:22;;;;;;;5.78;2.55;;;16.80;99.90;;;;;;5015229;28;20421;-59
2022/08/11 02:36:14;;;;;;;3.88;2.58;;;16.80;99.90;;;;;;5014660;28;20099;-60
2022/08/11 02:39:05;;;;;;;6.32;3.20;;;16.80;99.90;;;;;;5000309;28;20049;-59
2022/08/11 02:44:33;;;;;;;4.20;2.97;;;16.90;99.90;;;;;;5008429;28;20065;-59
2022/08/11 02:47:23;;;;;;;5.65;3.38;;;16.90;99.90;;;;;;5016111;28;20547;-59
2022/08/11 02:50:15;;;;;;;5.63;2.75;;;16.80;99.90;;;;;;5014181;28;20046;-59
2022/08/11 02:53:02;;;;;;;3.33;2.55;;;16.70;99.90;;;;;;5024779;28;20083;-60
2022/08/11 02:55:44;;;;;;;4.43;2.95;;;16.70;99.90;;;;;;5011955;28;20433;-60
2022/08/11 02:58:21;;;;;;;;;;;16.60;99.90;;;;;;5006102;28;20125;-60
2022/08/11 03:00:56;;;;;;;8.27;3.22;;;16.60;99.90;;;;;;5026349;28;20258;-60
2022/08/11 03:03:53;;;;;;;4.60;3.33;;;16.60;99.90;;;;;;5016054;28;20446;-60
2022/08/11 03:06:37;;;;;;;6.55;3.28;;;16.60;99.90;;;;;;5012088;28;20053;-60
2022/08/11 03:09:17;;;;;;;7.70;3.40;;;16.50;99.90;;;;;;5013289;28;20022;-61
2022/08/11 03:16:44;;;;;;;4.85;3.00;;;16.50;99.90;;;;;;5016301;28;20056;-60
2022/08/11 03:18:56;;;;;;;5.07;2.63;;;16.50;99.90;;;;;;5007534;28;20030;-60
2022/08/11 03:21:32;;;;;;;5.03;2.35;;;16.50;99.90;;;;;;5018180;28;20032;-60
2022/08/11 03:24:05;;;;;;;7.32;2.75;;;16.40;99.90;;;;;;5027790;28;20124;-60
2022/08/11 03:26:46;;;;;;;5.75;2.88;;;16.40;99.90;;;;;;5018074;28;20044;-61
2022/08/11 03:29:36;;;;;;;6.13;2.47;;;16.40;99.90;;;;;;5022424;28;20033;-60
2022/08/11 03:32:10;;;;;;;5.07;3.00;;;16.40;99.90;;;;;;5017437;28;20331;-60
2022/08/11 03:34:40;;;;;;;4.53;2.85;;;16.30;99.90;;;;;;5016813;28;20028;-60
2022/08/11 03:40:15;;;;;;;4.55;3.00;;;16.30;99.90;;;;;;5013452;28;20441;-60
2022/08/11 03:42:58;;;;;;;6.25;2.83;;;16.20;99.90;;;;;;5034772;22;20045;-62
2022/08/11 03:45:27;;;;;;;7.18;3.10;;;16.20;99.90;;;;;;5031609;28;20044;-62
2022/08/11 03:48:14;;;;;;;5.70;3.05;;;16.10;99.90;;;;;;5029638;28;20022;-64
2022/08/11 03:51:07;;;;;;;5.90;2.53;;;16.10;99.90;;;;;;5031913;28;20389;-63
2022/08/11 03:53:55;;;;;;;;;;;16.00;99.90;;;;;;5022197;28;20491;-63
2022/08/11 03:56:51;;;;;;;5.28;3.08;;;16.00;99.90;;;;;;5028189;28;20390;-63
2022/08/11 03:59:48;;;;;;;5.97;3.08;;;15.90;99.90;;;;;;5025688;28;20033;-64
2022/08/11 04:02:56;;;;;;;9.02;3.35;;;16.00;99.90;;;;;;5029133;28;20038;-63
2022/08/11 04:05:49;;;;;;;6.03;3.75;;;16.00;99.90;;;;;;4933788;29;20047;-63
2022/08/11 04:08:34;;;;;;;8.35;3.10;;;16.10;99.90;;;;;;4943898;28;20027;-63
2022/08/11 04:11:35;;;;;;;8.57;4.18;;;16.10;99.90;;;;;;4949008;29;20035;-62
2022/08/11 04:17:36;;;;;;;7.95;3.58;;;16.10;99.90;;;;;;4949464;29;20054;-63
2022/08/11 04:20:36;;;;;;;6.47;3.47;;;16.00;99.90;;;;;;4933479;29;20053;-63
2022/08/11 04:23:05;;;;;;;8.88;3.25;;;16.00;99.90;;;;;;4948457;28;20034;-63
2022/08/11 04:26:08;;;;;;;11.30;4.95;;;15.90;99.90;;;;;;4951112;29;20070;-63
2022/08/11 04:29:02;;;;;;;7.95;3.90;;;15.90;99.90;;;;;;4950963;29;20044;-63
2022/08/11 04:31:47;;;;;;;5.88;3.38;;;15.90;99.90;;;;;;4949620;28;20038;-63
2022/08/11 04:34:57;;;;;;;12.93;3.70;;;15.90;99.90;;;;;;4947376;28;20436;-63
2022/08/11 04:37:47;;;;;;;5.70;3.30;;;15.80;99.90;;;;;;4944364;29;20043;-63
2022/08/11 04:40:37;;;;;;;5.45;3.92;;;15.80;99.90;;;;;;4932686;29;20172;-62
2022/08/11 04:43:24;;;;;;;7.00;3.35;;;15.80;99.90;;;;;;5033916;28;20037;-63
2022/08/11 04:46:24;;;;;;;9.15;3.45;;;15.80;99.90;;;;;;5029324;28;20033;-63
2022/08/11 05:01:46;;;;;;;5.68;3.95;;;16.00;99.90;;;;;;5022134;28;20040;-63
2022/08/11 05:07:39;;;;;;;10.50;5.30;;;16.10;99.90;;;;;;5023610;28;20133;-63
2022/08/11 05:10:08;;;;;;;6.57;3.92;;;16.20;99.90;;;;;;5017412;28;20104;-63
2022/08/11 05:12:52;;;;;;;10.82;5.00;;;16.20;99.90;;;;;;5029975;28;20021;-61
2022/08/11 05:35:44;;;;;;;10.55;5.45;;;16.40;99.90;;;;;;5029768;28;20040;-63
2022/08/11 05:58:02;;;;;;;9.95;4.93;;;16.80;99.90;;;;;;5019577;28;20053;-64
2022/08/11 06:00:29;;;;;;;8.70;4.45;;;16.90;99.90;;;;;;5028668;28;20022;-64
2022/08/11 06:03:00;;;;;;;7.20;4.90;;;17.00;99.90;;;;;;5027177;28;20424;-64
2022/08/11 06:05:36;;;;;;;9.77;4.57;;;17.00;99.90;;;;;;5027020;28;20041;-64
2022/08/11 06:08:05;;;;;;;9.82;4.68;;;17.10;99.90;;;;;;5026613;28;20033;-63
2022/08/11 06:10:36;;;;;;;9.68;5.22;;;17.20;99.90;;;;;;5029396;28;20029;-63
2022/08/11 06:13:04;;;;;;;9.48;4.63;;;17.20;99.90;;;;;;5023513;28;20386;-65
2022/08/11 06:15:33;;;;;;;8.63;5.05;;;17.30;99.90;;;;;;5028655;28;20033;-63
2022/08/11 06:18:01;;;;;;;10.80;4.82;;;17.40;99.90;;;;;;5028550;28;20047;-63
2022/08/11 06:20:36;;;;;;;10.38;4.70;;;17.40;99.90;;;;;;5026672;28;20026;-63
2022/08/11 06:23:06;;;;;;;10.45;4.70;;;17.50;99.90;;;;;;5024428;28;20029;-62
2022/08/11 06:25:34;;;;;;;14.55;5.93;;;17.70;99.90;;;;;;5027446;28;20044;-63
2022/08/11 06:28:03;;;;;;;9.68;4.55;;;17.70;99.90;;;;;;5023495;28;20116;-62
2022/08/11 06:30:38;;;;;;;17.05;5.63;;;17.90;99.90;;;;;;5028795;28;20025;-64
2022/08/11 06:33:09;;;;;;;12.23;5.32;;;18.00;99.90;;;;;;5026679;28;20109;-64
2022/08/11 06:35:59;;;;;;;8.25;5.07;;;18.00;99.90;;;;;;5028459;28;20056;-64
2022/08/11 06:38:59;;;;;;;8.60;4.75;;;18.00;99.90;;;;;;5022991;28;20481;-64
2022/08/11 06:41:30;;;;;;;10.38;4.97;;;18.10;99.90;;;;;;5026342;28;20029;-64
2022/08/11 06:44:11;;;;;;;8.00;4.93;;;18.10;99.90;;;;;;5025220;28;20038;-64
2022/08/11 06:46:41;;;;;;;10.57;5.28;;;18.20;99.90;;;;;;5022318;28;20053;-64
2022/08/11 06:51:10;;;;;;;9.68;5.93;;;18.20;99.90;;;;;;5025348;28;20021;-63
2022/08/11 06:52:04;;;;;;;13.82;5.18;;;18.20;99.90;;;;;;5027203;28;20021;-63
2022/08/11 06:54:33;;;;;;;9.45;4.88;;;18.40;99.90;;;;;;5026506;28;20021;-63
2022/08/11 07:02:34;;;;;;;9.30;4.60;;;18.60;99.90;;;;;;5023217;28;20032;-63
2022/08/11 07:05:15;;;;;;;8.98;4.82;;;18.70;99.90;;;;;;5026753;28;20137;-63
2022/08/11 07:16:08;;;;;;;12.20;4.88;;;19.10;99.90;;;;;;5023877;28;20041;-64
2022/08/11 07:30:04;;;;;;;9.05;3.88;;;19.40;99.90;;;;;;5027886;28;20563;-64
2022/08/11 07:32:32;;;;;;;10.38;3.90;;;19.40;99.90;;;;;;5027866;28;20025;-64
2022/08/11 07:35:06;;;;;;;6.63;3.53;;;19.50;99.90;;;;;;5030370;28;20065;-62
2022/08/11 07:37:34;;;;;;;7.75;3.50;;;19.60;99.90;;;;;;5018274;28;20032;-64
2022/08/11 07:40:04;;;;;;;8.05;3.50;;;19.60;99.90;;;;;;5011977;28;20060;-60
2022/08/11 07:42:34;;;;;;;9.07;3.70;;;19.60;99.90;;;;;;5029147;28;21973;-63
2022/08/11 07:53:23;;;;;;;7.13;3.92;;;20.00;99.90;;;;;;5020301;28;20504;-64
2022/08/11 07:55:52;;;;;;;8.40;3.28;;;20.10;99.90;;;;;;5031216;28;20108;-66
2022/08/11 08:17:48;;;;;;;6.03;2.80;;;21.00;99.90;;;;;;5026359;28;20393;-63
2022/08/11 08:20:16;;;;;;;9.40;3.60;;;21.10;99.90;;;;;;5026295;28;20171;-63
2022/08/11 08:22:42;;;;;;;9.10;3.47;;;21.20;99.90;;;;;;5030160;28;20488;-64
2022/08/11 08:25:09;;;;;;;4.95;2.63;;;21.40;99.90;;;;;;5026223;28;20033;-62
2022/08/11 08:27:37;;;;;;;9.60;3.03;;;21.50;99.90;;;;;;5030481;28;20037;-63
2022/08/11 08:32:50;;;;;;;5.40;2.30;;;21.60;99.90;;;;;;5030238;28;20052;-63
2022/08/11 08:35:17;;;;;;;5.25;2.60;;;21.80;99.90;;;;;;5028955;28;20053;-63
2022/08/11 08:37:43;;;;;;;7.68;2.47;;;21.80;99.90;;;;;;5030580;28;20033;-63
2022/08/11 08:40:09;;;;;;;7.75;3.15;;;22.00;99.90;;;;;;5027538;28;20339;-62
2022/08/11 08:42:42;;;;;;;8.30;3.17;;;22.10;99.90;;;;;;5030015;28;20068;-63
2022/08/11 08:45:11;;;;;;;9.95;2.83;;;22.30;99.90;;;;;;5027041;28;20033;-63
2022/08/11 08:47:43;;;;;;;7.00;2.50;;;22.50;99.90;;;;;;5025182;28;20030;-64
2022/08/11 08:50:18;;;;;;;4.93;2.83;;;22.70;99.90;;;;;;5027561;28;20104;-63
2022/08/11 08:52:58;;;;;;;5.32;2.78;;;22.80;99.90;;;;;;5020913;28;20021;-63
2022/08/11 08:55:27;;;;;;;5.78;2.33;;;22.90;99.90;;;;;;5025948;28;20469;-62
2022/08/11 08:57:55;;;;;;;4.55;2.10;;;23.10;99.90;;;;;;5023229;28;20072;-63
2022/08/11 09:00:22;;;;;;;5.18;1.88;;;23.20;99.90;;;;;;5025357;28;20103;-63
2022/08/11 09:02:48;;;;;;;5.80;2.08;;;23.20;99.90;;;;;;5029345;28;20120;-63
2022/08/11 09:05:17;;;;;;;3.58;1.90;;;23.30;99.90;;;;;;5027694;28;20473;-63
2022/08/11 09:07:46;;;;;;;6.80;2.22;;;23.40;99.90;;;;;;5024281;28;20045;-63
2022/08/11 09:10:16;;;;;;;7.55;2.00;;;23.50;99.90;;;;;;5027776;28;20393;-65
2022/08/11 09:12:42;;;;;;;6.45;2.33;;;23.70;99.90;;;;;;5025636;28;20018;-63
2022/08/11 09:15:10;;;;;;;4.28;2.17;;;23.90;99.90;;;;;;5028246;28;20034;-65
2022/08/11 09:17:40;;;;;;;8.77;2.30;;;24.20;99.90;;;;;;5028528;28;20029;-63
2022/08/11 09:20:23;;;;;;;5.53;2.00;;;24.40;99.90;;;;;;5024971;28;20025;-62
2022/08/11 09:28:29;;;;;;;4.38;2.58;;;25.20;99.90;;;;;;5027947;28;20040;-62
2022/08/11 09:30:55;;;;;;;5.45;2.50;;;25.30;99.90;;;;;;5029457;28;20119;-63
2022/08/11 09:33:23;;;;;;;3.05;1.75;;;25.40;99.90;;;;;;5027617;28;20481;-63
2022/08/11 09:35:51;;;;;;;6.82;2.55;;;25.50;99.90;;;;;;5028423;28;20116;-63
2022/08/11 09:41:06;;;;;;;3.03;1.88;;;25.50;99.90;;;;;;5025694;28;20437;-63
2022/08/11 09:46:29;;;;;;;5.63;1.67;;;26.00;99.90;;;;;;5026831;28;20544;-63
2022/08/11 09:48:58;;;;;;;4.82;1.90;;;26.30;99.90;;;;;;5029442;28;20389;-63
2022/08/11 09:51:29;;;;;;;3.72;2.17;;;26.40;99.90;;;;;;5025731;28;20022;-62
2022/08/11 09:53:55;;;;;;;3.42;1.67;;;26.70;99.90;;;;;;5027994;28;20026;-63
2022/08/11 09:59:07;;;;;;;5.50;1.70;;;27.10;95.70;;;;;;5027522;28;20060;-61
2022/08/11 10:01:44;;;;;;;4.28;2.03;;;27.40;95.20;;;;;;5028373;28;20025;-62
2022/08/11 10:04:15;;;;;;;4.25;1.90;;;27.60;96.10;;;;;;5026876;28;20049;-62
2022/08/11 10:07:00;;;;;;;2.90;1.88;;;27.70;94.60;;;;;;5026616;28;20136;-63
2022/08/11 10:09:47;;;;;;;6.03;1.63;;;27.90;94.70;;;;;;5029024;28;20164;-62
2022/08/11 10:12:25;;;;;;;6.57;4.43;;;28.00;88.20;;;;;;5012330;28;20045;-62
2022/08/11 10:20:35;;;;;;;7.20;1.73;;;28.70;81.90;;;;;;5027512;28;20040;-63
2022/08/11 10:28:34;;;;;;;4.28;1.80;;;29.10;79.00;;;;;;5026370;28;20049;-63
2022/08/11 10:34:02;;;;;;;2.75;1.63;;;29.40;77.20;;;;;;5028059;28;20461;-62
2022/08/11 10:36:47;;;;;;;7.32;2.58;;;29.40;75.30;;;;;;5024928;28;20040;-63
2022/08/11 10:39:20;;;;;;;9.13;2.10;;;29.50;75.60;;;;;;5026170;28;20397;-63
2022/08/11 10:44:38;;;;;;;3.15;2.10;;;29.70;72.60;;;;;;5027403;28;20083;-63
2022/08/11 10:51:11;;;;;;;5.68;1.70;;;29.80;72.90;;;;;;5028646;28;20037;-63
2022/08/11 11:00:55;;;;;;;3.75;1.88;;;30.30;67.20;;;;;;5028297;28;20075;-63
2022/08/11 11:03:26;;;;;;;3.58;1.63;;;30.20;64.90;;;;;;5025889;28;20041;-63
2022/08/11 11:06:01;;;;;;;4.68;1.70;;;30.10;62.80;;;;;;5027243;28;20145;-62
2022/08/11 11:11:15;;;;;;;4.90;1.50;;;30.70;62.20;;;;;;5027894;28;20125;-62
2022/08/11 11:19:19;;;;;;;5.70;2.00;;;32.20;57.30;;;;;;5028546;28;20395;-63
2022/08/11 11:21:48;;;;;;;5.53;2.80;;;32.50;55.20;;;;;;5031521;28;20029;-63
2022/08/11 11:24:36;;;;;;;7.72;2.00;;;32.90;54.20;;;;;;5030065;28;20270;-63
2022/08/11 11:27:27;;;;;;;4.10;1.70;;;33.00;54.10;;;;;;5029280;28;20037;-62
2022/08/11 11:30:15;;;;;;;5.07;1.98;;;32.70;53.70;;;;;;5029424;28;20025;-63
2022/08/11 11:32:55;;;;;;;4.93;1.83;;;32.40;52.50;;;;;;5030269;28;20033;-64
2022/08/11 11:35:43;;;;;;;5.05;2.13;;;32.70;52.00;;;;;;5029929;28;20033;-63
2022/08/11 11:38:09;;;;;;;5.65;1.90;;;33.00;51.10;;;;;;5029682;28;20063;-63
2022/08/11 11:40:36;;;;;;;5.25;2.13;;;33.10;49.60;;;;;;5030932;28;20427;-63
2022/08/11 11:43:03;;;;;;;7.43;1.92;;;33.50;49.10;;;;;;5027921;28;20118;-64
2022/08/11 11:45:29;;;;;;;5.45;1.98;;;33.40;49.20;;;;;;5030339;28;20041;-63
2022/08/11 11:47:58;;;;;;;3.67;1.92;;;33.40;49.40;;;;;;5031375;28;20037;-62
2022/08/11 11:50:25;;;;;;;3.65;1.85;;;33.50;48.00;;;;;;5027447;28;20056;-63
2022/08/11 11:52:52;;;;;;;11.88;2.40;;;33.70;47.90;;;;;;5030285;28;20041;-63
2022/08/11 11:55:21;;;;;;;6.20;2.08;;;34.00;47.90;;;;;;5029367;28;20099;-62
2022/08/11 12:03:19;;;;;;;6.05;1.80;;;34.90;45.20;;;;;;5023971;28;20036;-63
2022/08/11 12:05:46;;;;;;;5.43;2.20;;;35.10;43.90;;;;;;5031010;28;20068;-62
2022/08/11 12:08:17;;;;;;;9.40;2.30;;;34.80;43.90;;;;;;5029175;28;20025;-62
2022/08/11 12:13:40;;;;;;;4.78;1.92;;;34.90;42.30;;;;;;5027977;28;20040;-62
2022/08/11 12:16:11;;;;;;;2.42;2.22;;;35.20;42.20;;;;;;5028646;28;20036;-62
2022/08/11 12:18:40;;;;;;;5.63;1.52;;;35.30;41.60;;;;;;5030195;28;20072;-61
2022/08/11 12:21:07;;;;;;;4.57;1.88;;;34.90;41.40;;;;;;5028812;28;20490;-62
2022/08/11 12:29:10;;;;;;;1.75;1.23;;;35.10;40.20;;;;;;5025758;28;20052;-62
2022/08/11 12:31:38;;;;;;;3.92;1.70;;;35.20;40.10;;;;;;5029629;28;20025;-63
2022/08/11 12:34:06;;;;;;;6.82;2.10;;;35.60;40.30;;;;;;5028715;28;20481;-62
2022/08/11 12:36:55;;;;;;;3.08;1.50;;;35.90;40.00;;;;;;5029745;28;20064;-63
2022/08/11 12:45:26;;;;;;;6.47;1.95;;;35.80;38.40;;;;;;5027486;28;20574;-62
2022/08/11 12:53:28;;;;;;;6.60;2.05;;;37.30;38.60;;;;;;5024957;28;20064;-62
2022/08/11 12:58:43;;;;;;;5.97;2.20;;;37.40;37.50;;;;;;5029634;28;20117;-63
2022/08/11 13:06:41;;;;;;;6.82;2.70;;;37.60;36.80;;;;;;5030050;28;20111;-62
2022/08/11 13:09:12;;;;;;;3.63;2.38;;;37.70;36.30;;;;;;5025597;28;20080;-63
2022/08/11 13:14:25;;;;;;;7.75;2.30;;;37.60;36.60;;;;;;5027063;28;20382;-63
2022/08/11 13:19:37;;;;;;;3.08;1.73;;;37.10;35.70;;;;;;5028871;28;20512;-61
2022/08/11 13:22:04;;;;;;;2.42;1.85;;;37.20;36.10;;;;;;5027321;28;20033;-62
2022/08/11 13:24:33;;;;;;;6.53;2.20;;;37.60;36.00;;;;;;5023379;28;20171;-63
2022/08/11 13:26:58;;;;;;;3.75;2.33;;;38.20;36.50;;;;;;5021685;28;20067;-62
2022/08/11 13:29:26;;;;;;;2.50;1.60;;;37.80;36.40;;;;;;5018899;28;20049;-62
2022/08/11 13:31:58;;;;;;;2.13;1.73;;;37.60;36.20;;;;;;5022639;28;20021;-61
2022/08/11 13:34:26;;;;;;;3.42;1.90;;;37.80;35.80;;;;;;5021596;28;20026;-61
2022/08/11 13:36:54;;;;;;;5.22;2.13;;;38.00;34.90;;;;;;5027315;28;20041;-61
2022/08/11 13:39:29;;;;;;;2.03;1.75;;;38.00;35.20;;;;;;5022400;28;20022;-61
2022/08/11 13:41:58;;;;;;;3.45;2.10;;;38.20;35.30;;;;;;5021853;28;20032;-62
2022/08/11 13:44:27;;;;;;;4.03;1.88;;;38.20;35.00;;;;;;5024271;28;20123;-62
2022/08/11 13:46:56;;;;;;;4.38;1.90;;;38.70;35.00;;;;;;5026550;28;20029;-62
2022/08/11 13:49:23;;;;;;;5.55;2.30;;;38.70;33.40;;;;;;5021999;28;20064;-62
2022/08/11 13:51:49;;;;;;;2.10;1.80;;;38.90;33.90;;;;;;5022459;28;20041;-62
2022/08/11 13:54:20;;;;;;;2.53;1.90;;;38.90;33.90;;;;;;5024848;28;20024;-62
2022/08/11 13:56:51;;;;;;;4.50;2.05;;;39.50;33.60;;;;;;5027160;28;20060;-63
2022/08/11 13:59:24;;;;;;;2.35;2.10;;;40.10;33.80;;;;;;5022128;28;20069;-62
2022/08/11 14:02:00;;;;;;;6.22;2.28;;;40.40;33.60;;;;;;5019236;28;20135;-62
2022/08/11 14:04:32;;;;;;;3.92;2.40;;;40.80;33.80;;;;;;5018394;28;20026;-62
2022/08/11 14:07:02;;;;;;;4.65;2.15;;;40.70;32.00;;;;;;5022843;28;20045;-62
2022/08/11 14:09:33;;;;;;;3.65;2.20;;;40.90;31.90;;;;;;5018170;28;20393;-62
2022/08/11 14:14:50;;;;;;;5.03;2.10;;;40.30;32.60;;;;;;5021240;28;20040;-62
2022/08/11 14:17:19;;;;;;;3.85;2.30;;;40.30;33.70;;;;;;5024535;28;20033;-62
2022/08/11 14:19:49;;;;;;;4.07;2.15;;;40.70;33.70;;;;;;5025392;28;20470;-63
2022/08/11 14:22:16;;;;;;;4.78;2.00;;;40.70;33.40;;;;;;5022531;28;20064;-62
2022/08/11 14:24:48;;;;;;;2.63;2.30;;;41.30;32.90;;;;;;5022140;28;20477;-63
2022/08/11 14:27:16;;;;;;;7.80;2.35;;;40.80;32.50;;;;;;5018478;28;20041;-63
2022/08/11 14:29:44;;;;;;;6.88;2.88;;;40.60;33.30;;;;;;5021547;28;20048;-63
2022/08/11 14:32:12;;;;;;;7.03;2.25;;;40.70;32.60;;;;;;5023725;28;20059;-64
2022/08/11 14:34:43;;;;;;;5.55;2.00;;;40.80;32.90;;;;;;5016783;28;20033;-62
2022/08/11 14:37:10;;;;;;;;;;;41.20;32.10;;;;;;5023428;28;20041;-61
2022/08/11 14:39:57;;;;;;;2.50;2.30;;;41.00;30.90;;;;;;5025232;28;19909;-67
2022/08/11 14:48:03;;;;;;;5.72;2.97;;;41.50;31.70;;;;;;5024476;28;20041;-62
2022/08/11 14:50:32;;;;;;;6.75;2.80;;;41.20;31.00;;;;;;5024434;28;20029;-61
2022/08/11 14:53:09;;;;;;;2.30;2.10;;;41.40;31.50;;;;;;5028133;28;20060;-64
2022/08/11 14:58:24;;;;;;;5.50;2.65;;;41.80;30.90;;;;;;5026605;28;20426;-69
2022/08/11 15:00:58;;;;;;;6.10;3.17;;;42.50;30.40;;;;;;5028064;28;20405;-70
2022/08/11 15:03:26;;;;;;;4.03;2.53;;;42.20;30.20;;;;;;5027017;28;20064;-69
2022/08/11 15:05:55;;;;;;;3.20;2.60;;;42.90;30.30;;;;;;5028261;28;20149;-70
2022/08/11 15:08:53;;;;;;;6.13;2.75;;;43.10;29.90;;;;;;5025776;28;20071;-61
2022/08/11 15:14:01;;;;;;;7.80;2.72;;;43.40;29.00;;;;;;5018538;28;20044;-63
2022/08/11 15:19:14;;;;;;;5.97;2.25;;;43.70;29.10;;;;;;5020874;28;20133;-65
2022/08/11 15:24:26;;;;;;;6.05;2.55;;;45.20;28.50;;;;;;5020969;28;20092;-64
2022/08/11 15:37:59;;;;;;;4.93;2.55;;;47.20;26.10;;;;;;5027579;28;20432;-65
2022/08/11 15:46:27;;;;;;;1.35;1.33;;;45.90;26.20;;;;;;5019682;28;20410;-66
2022/08/11 15:49:01;;;;;;;2.75;1.83;;;46.10;26.10;;;;;;5023362;28;20033;-66
2022/08/11 15:51:47;;;;;;;4.28;2.05;;;46.90;25.30;;;;;;5022489;28;20409;-65
2022/08/11 15:54:17;;;;;;;3.13;1.83;;;47.30;25.10;;;;;;5020636;28;20367;-66
2022/08/11 15:56:47;;;;;;;2.45;1.65;;;48.30;24.90;;;;;;5027540;28;20374;-63
2022/08/11 16:04:52;;;;;;;1.98;1.77;;;49.10;22.90;;;;;;5021781;28;20044;-65
2022/08/11 16:07:31;;;;;;;3.97;1.80;;;49.00;22.90;;;;;;5020061;28;20029;-65
2022/08/11 16:10:00;;;;;;;3.70;2.30;;;48.30;23.20;;;;;;5026008;28;20033;-65
2022/08/11 16:12:31;;;;;;;3.67;2.10;;;49.50;23.20;;;;;;5023704;28;20473;-65
2022/08/11 16:17:51;;;;;;;1.80;1.58;;;50.40;22.40;;;;;;5023624;28;20036;-65
2022/08/11 16:20:21;;;;;;;3.20;2.40;;;49.70;22.00;;;;;;5024934;28;20025;-65
2022/08/11 16:22:50;;;;;;;4.13;2.20;;;49.80;21.80;;;;;;5025697;28;20516;-65
2022/08/11 16:25:21;;;;;;;6.32;3.55;;;49.70;22.10;;;;;;5021586;28;20505;-65
2022/08/11 16:27:58;;;;;;;2.30;2.10;;;49.20;21.50;;;;;;5022579;28;20497;-67
2022/08/11 16:30:27;;;;;;;2.13;2.03;;;49.20;21.40;;;;;;5023670;28;20086;-66
2022/08/11 16:32:55;;;;;;;2.30;2.15;;;49.70;21.50;;;;;;5025290;28;20025;-66
2022/08/11 16:46:58;;;;;;;7.47;2.78;;;50.20;21.70;;;;;;5005037;28;20038;-66
2022/08/11 16:46:58;;;;;;;6.32;2.85;;;48.60;21.60;;;;;;4999850;28;20080;-65
2022/08/11 16:49:32;;;;;;;2.40;2.20;;;49.00;21.90;;;;;;5000292;28;20076;-66
2022/08/11 16:52:02;;;;;;;5.20;2.15;;;48.00;21.80;;;;;;5006010;28;20486;-66
2022/08/11 16:54:32;;;;;;;;;;;48.50;22.20;;;;;;5006815;28;20026;-65
2022/08/11 16:59:12;;;;;;;2.75;2.30;;;48.10;22.20;;;;;;5006368;28;19909;-66
2022/08/11 16:59:46;;;;;;;4.70;3.65;;;47.60;22.00;;;;;;5001672;28;20045;-67
2022/08/11 17:13:58;;;;;;;2.60;2.38;;;47.60;22.90;;;;;;5024312;28;20044;-66
2022/08/11 17:16:27;;;;;;;;;;;47.10;22.90;;;;;;5022932;28;20038;-66
2022/08/11 17:19:04;;;;;;;5.72;2.80;;;47.30;23.20;;;;;;5023810;28;19935;-66
2022/08/11 17:23:45;;;;;;;5.30;2.50;;;47.00;23.50;;;;;;5024305;28;20442;-65
2022/08/11 17:24:25;;;;;;;4.53;3.13;;;47.10;23.40;;;;;;5024084;28;20431;-66
2022/08/11 17:26:57;;;;;;;3.80;2.88;;;46.70;23.70;;;;;;5024625;28;20061;-66
2022/08/11 17:29:36;;;;;;;5.10;2.72;;;46.60;23.80;;;;;;5021728;28;20040;-66
2022/08/11 17:37:44;;;;;;;5.28;3.20;;;46.50;23.90;;;;;;5017331;28;20128;-65
2022/08/11 17:40:12;;;;;;;5.65;2.58;;;45.80;24.20;;;;;;5021994;28;20184;-64
2022/08/11 17:48:26;;;;;;;6.18;2.33;;;44.20;24.90;;;;;;5020863;28;20049;-65
2022/08/11 17:51:00;;;;;;;3.15;2.53;;;44.30;25.00;;;;;;5021591;28;20032;-66
2022/08/11 18:01:48;;;;;;;6.22;2.60;;;43.10;25.70;;;;;;5022091;28;20473;-66
2022/08/11 18:04:15;;;;;;;4.85;2.75;;;42.50;25.70;;;;;;5020036;28;20033;-67
2022/08/11 18:06:42;;;;;;;4.72;2.65;;;42.60;26.10;;;;;;5026379;28;20088;-66
